Time,TemperatureF,DewpointF,PressureIn,WindDirection,WindDirectionDegrees,WindSpeedMPH,WindSpeedGustMPH,Humidity,HourlyPrecipIn,Conditions,Clouds,dailyrainin,SolarRadiationWatts/m^2,SoftwareType,DateUTC
2013-01-09 00:01:00,35.9,30.9,29.82,West,276,11.0,14.0,82,0.00,,,0.00,0,Wunderground v.1.15,2013-01-09 06:01:00,
2013-01-09 00:11:00,35.6,30.6,29.83,WSW,254,7.0,7.0,82,0.00,,,0.00,0,Wunderground v.1.15,2013-01-09 06:11:00,
2013-01-09 00:21:00,34.9,30.3,29.83,West,277,6.0,6.0,83,0.00,,,0.00,0,Wunderground v.1.15,2013-01-09 06:21:00,
2013-01-09 00:26:00,34.6,30.3,29.83,WNW,287,13.0,13.0,84,0.00,,,0.00,0,Wunderground v.1.15,2013-01-09 06:26:00,
2013-01-09 00:36:00,34.1,29.8,29.84,West,261,10.0,10.0,84,0.00,,,0.00,0,Wunderground v.1.15,2013-01-09 06:36:00,
2013-01-09 00:46:00,33.8,29.5,29.84,WNW,283,5.0,7.0,84,0.00,,,0.00,0,Wunderground v.1.15,2013-01-09 06:46:00,
2013-01-09 00:56:00,33.6,29.3,29.84,WNW,284,9.0,11.0,84,0.00,,,0.00,0,Wunderground v.1.15,2013-01-09 06:56:00,
2013-01-09 01:06:00,33.7,29.4,29.86,WNW,296,14.0,19.0,84,0.00,,,0.00,0,Wunderground v.1.15,2013-01-09 07:06:00,
2013-01-09 01:11:00,33.7,29.4,29.85,WNW,287,11.0,11.0,84,0.00,,,0.00,0,Wunderground v.1.15,2013-01-09 07:11:00,
2013-01-09 01:21:00,33.7,29.1,29.86,WNW,298,9.0,9.0,83,0.00,,,0.00,0,Wunderground v.1.15,2013-01-09 07:21:00,
2013-01-09 01:31:00,33.7,29.4,29.87,WNW,287,7.0,7.0,84,0.00,,,0.00,0,Wunderground v.1.15,2013-01-09 07:31:00,
2013-01-09 01:41:00,33.7,29.7,29.88,WNW,290,12.0,12.0,85,0.00,,,0.00,0,Wunderground v.1.15,2013-01-09 07:41:00,
2013-01-09 01:51:00,33.7,29.7,29.88,WNW,288,12.0,12.0,85,0.00,,,0.00,0,Wunderground v.1.15,2013-01-09 07:51:00,
2013-01-09 02:01:00,33.7,30.0,29.89,WNW,294,9.0,19.0,86,0.00,,,0.00,0,Wunderground v.1.15,2013-01-09 08:01:00,
2013-01-09 02:06:00,33.7,30.0,29.88,WNW,294,15.0,19.0,86,0.00,,,0.00,0,Wunderground v.1.15,2013-01-09 08:06:00,
2013-01-09 02:16:00,33.7,30.0,29.89,WNW,293,13.0,14.0,86,0.00,,,0.00,0,Wunderground v.1.15,2013-01-09 08:16:00,
2013-01-09 02:26:00,33.6,29.9,29.89,WNW,296,11.0,13.0,86,0.00,,,0.00,0,Wunderground v.1.15,2013-01-09 08:26:00,
2013-01-09 02:36:00,33.3,29.6,29.90,WNW,291,7.0,14.0,86,0.00,,,0.00,0,Wunderground v.1.15,2013-01-09 08:36:00,
2013-01-09 02:46:00,33.0,29.6,29.90,WNW,293,8.0,11.0,87,0.00,,,0.00,0,Wunderground v.1.15,2013-01-09 08:46:00,
2013-01-09 02:56:00,32.7,29.3,29.91,WNW,299,9.0,10.0,87,0.00,,,0.00,0,Wunderground v.1.15,2013-01-09 08:56:00,
2013-01-09 03:06:00,32.4,29.0,29.90,WNW,290,7.0,13.0,87,0.00,,,0.00,0,Wunderground v.1.15,2013-01-09 09:06:00,
2013-01-09 03:16:00,32.0,28.6,29.90,WNW,286,6.0,6.0,87,0.00,,,0.00,0,Wunderground v.1.15,2013-01-09 09:16:00,
2013-01-09 03:21:00,32.0,28.6,29.91,WNW,283,4.0,4.0,87,0.00,,,0.00,0,Wunderground v.1.15,2013-01-09 09:21:00,
2013-01-09 03:31:00,32.3,28.9,29.92,WNW,283,6.0,6.0,87,0.00,,,0.00,0,Wunderground v.1.15,2013-01-09 09:31:00,
2013-01-09 03:41:00,32.5,29.1,29.92,WNW,291,9.0,9.0,87,0.00,,,0.00,0,Wunderground v.1.15,2013-01-09 09:41:00,
2013-01-09 03:51:00,32.4,28.7,29.93,West,281,6.0,6.0,86,0.00,,,0.00,0,Wunderground v.1.15,2013-01-09 09:51:00,
2013-01-09 04:01:00,31.8,28.1,29.92,West,265,9.0,13.0,86,0.00,,,0.00,0,Wunderground v.1.15,2013-01-09 10:01:00,
2013-01-09 04:06:00,31.7,28.3,29.94,West,264,7.0,13.0,87,0.00,,,0.00,0,Wunderground v.1.15,2013-01-09 10:06:00,
2013-01-09 04:15:00,31.6,28.2,29.94,WNW,283,7.0,9.0,87,0.00,,,0.00,0,Wunderground v.1.15,2013-01-09 10:15:00,
2013-01-09 04:21:00,31.6,28.2,29.94,WSW,242,10.0,10.0,87,0.00,,,0.00,0,Wunderground v.1.15,2013-01-09 10:21:00,
2013-01-09 04:31:00,31.5,27.8,29.93,WSW,255,10.0,10.0,86,0.00,,,0.00,0,Wunderground v.1.15,2013-01-09 10:31:00,
2013-01-09 04:41:00,31.1,27.7,29.94,West,267,6.0,6.0,87,0.00,,,0.00,0,Wunderground v.1.15,2013-01-09 10:41:00,
2013-01-09 04:51:00,30.7,27.0,29.94,WSW,256,9.0,9.0,86,0.00,,,0.00,0,Wunderground v.1.15,2013-01-09 10:51:00,
2013-01-09 05:00:00,30.3,26.9,29.95,West,276,6.0,16.0,87,0.00,,,0.00,0,Wunderground v.1.15,2013-01-09 11:00:00,
2013-01-09 05:06:00,30.3,26.9,29.94,West,269,10.0,16.0,87,0.00,,,0.00,0,Wunderground v.1.15,2013-01-09 11:06:00,
2013-01-09 05:16:00,30.0,26.6,29.95,West,280,7.0,7.0,87,0.00,,,0.00,0,Wunderground v.1.15,2013-01-09 11:16:00,
2013-01-09 05:26:00,29.9,26.5,29.95,West,266,10.0,10.0,87,0.00,,,0.00,0,Wunderground v.1.15,2013-01-09 11:26:00,
2013-01-09 05:36:00,29.8,26.4,29.94,West,263,7.0,7.0,87,0.00,,,0.00,0,Wunderground v.1.15,2013-01-09 11:36:00,
2013-01-09 05:46:00,29.8,26.1,29.95,West,276,7.0,7.0,86,0.00,,,0.00,0,Wunderground v.1.15,2013-01-09 11:46:00,
2013-01-09 05:56:00,29.8,26.4,29.95,West,271,7.0,8.0,87,0.00,,,0.00,0,Wunderground v.1.15,2013-01-09 11:56:00,
2013-01-09 06:01:00,29.9,26.5,29.95,West,262,4.0,12.0,87,0.00,,,0.00,0,Wunderground v.1.15,2013-01-09 12:01:00,
2013-01-09 06:10:00,29.9,26.5,29.96,West,266,10.0,10.0,87,0.00,,,0.00,0,Wunderground v.1.15,2013-01-09 12:10:00,
2013-01-09 06:16:00,30.1,26.7,29.97,WSW,257,8.0,10.0,87,0.00,,,0.00,0,Wunderground v.1.15,2013-01-09 12:16:00,
2013-01-09 06:26:00,30.1,26.7,29.97,WSW,253,6.0,8.0,87,0.00,,,0.00,0,Wunderground v.1.15,2013-01-09 12:26:00,
2013-01-09 06:36:00,29.9,26.5,29.97,WSW,246,3.0,6.0,87,0.00,,,0.00,0,Wunderground v.1.15,2013-01-09 12:36:00,
2013-01-09 06:46:00,29.6,26.2,29.98,WSW,257,6.0,6.0,87,0.00,,,0.00,0,Wunderground v.1.15,2013-01-09 12:46:00,
2013-01-09 06:55:00,29.6,26.2,29.98,West,269,10.0,10.0,87,0.00,,,0.00,0,Wunderground v.1.15,2013-01-09 12:55:00,
2013-01-09 07:01:00,29.8,26.1,29.99,West,275,6.0,6.0,86,0.00,,,0.00,0,Wunderground v.1.15,2013-01-09 13:01:00,
2013-01-09 07:11:00,30.1,26.1,29.99,WNW,290,14.0,14.0,85,0.00,,,0.00,0,Wunderground v.1.15,2013-01-09 13:11:00,
2013-01-09 07:21:00,30.2,26.2,30.00,West,260,6.0,6.0,85,0.00,,,0.00,0,Wunderground v.1.15,2013-01-09 13:21:00,
2013-01-09 07:30:00,30.3,26.0,30.00,WNW,288,8.0,8.0,84,0.00,,,0.00,0,Wunderground v.1.15,2013-01-09 13:30:00,
2013-01-09 07:36:00,30.2,25.9,30.00,WNW,288,8.0,8.0,84,0.00,,,0.00,0,Wunderground v.1.15,2013-01-09 13:36:00,
2013-01-09 07:46:00,30.1,25.8,30.00,West,267,7.0,7.0,84,0.00,,,0.00,0,Wunderground v.1.15,2013-01-09 13:46:00,
2013-01-09 07:56:00,30.0,25.8,30.01,West,275,5.0,6.0,84,0.00,,,0.00,0,Wunderground v.1.15,2013-01-09 13:56:00,
2013-01-09 08:06:00,30.1,25.8,30.01,West,262,5.0,16.0,84,0.00,,,0.00,0,Wunderground v.1.15,2013-01-09 14:06:00,
2013-01-09 08:16:00,30.4,25.9,30.01,West,267,14.0,14.0,83,0.00,,,0.00,0,Wunderground v.1.15,2013-01-09 14:16:00,
2013-01-09 08:25:00,30.6,25.8,30.01,WNW,282,8.0,8.0,82,0.00,,,0.00,0,Wunderground v.1.15,2013-01-09 14:25:00,
2013-01-09 08:31:00,30.6,25.8,30.02,WNW,288,7.0,7.0,82,0.00,,,0.00,0,Wunderground v.1.15,2013-01-09 14:31:00,
2013-01-09 08:41:00,30.7,25.9,30.02,West,276,8.0,8.0,82,0.00,,,0.00,0,Wunderground v.1.15,2013-01-09 14:41:00,
2013-01-09 08:51:00,31.0,26.1,30.02,West,268,17.0,17.0,82,0.00,,,0.00,0,Wunderground v.1.15,2013-01-09 14:51:00,
2013-01-09 09:01:00,31.4,26.2,30.03,West,280,8.0,11.0,81,0.00,,,0.00,0,Wunderground v.1.15,2013-01-09 15:01:00,
2013-01-09 09:06:00,31.6,26.1,30.03,West,280,12.0,12.0,80,0.00,,,0.00,0,Wunderground v.1.15,2013-01-09 15:06:00,
2013-01-09 09:16:00,31.9,26.1,30.04,WNW,292,9.0,9.0,79,0.00,,,0.00,0,Wunderground v.1.15,2013-01-09 15:16:00,
2013-01-09 09:26:00,32.0,25.9,30.04,West,277,11.0,11.0,78,0.00,,,0.00,0,Wunderground v.1.15,2013-01-09 15:26:00,
2013-01-09 09:36:00,32.5,26.1,30.04,WNW,285,10.0,10.0,77,0.00,,,0.00,0,Wunderground v.1.15,2013-01-09 15:36:00,
2013-01-09 09:46:00,32.9,26.2,30.05,WNW,285,8.0,11.0,76,0.00,,,0.00,0,Wunderground v.1.15,2013-01-09 15:46:00,
2013-01-09 09:56:00,33.2,25.8,30.05,WNW,289,10.0,15.0,74,0.00,,,0.00,0,Wunderground v.1.15,2013-01-09 15:56:00,
2013-01-09 10:06:00,33.5,26.1,30.07,WNW,282,8.0,17.0,74,0.00,,,0.00,0,Wunderground v.1.15,2013-01-09 16:06:00,
2013-01-09 10:15:00,33.7,26.0,30.08,West,270,7.0,11.0,73,0.00,,,0.00,0,Wunderground v.1.15,2013-01-09 16:15:00,
2013-01-09 10:21:00,33.9,25.8,30.08,WNW,292,14.0,14.0,72,0.00,,,0.00,0,Wunderground v.1.15,2013-01-09 16:21:00,
2013-01-09 10:31:00,34.1,26.0,30.09,West,275,12.0,12.0,72,0.00,,,0.00,0,Wunderground v.1.15,2013-01-09 16:31:00,
2013-01-09 10:41:00,34.4,25.6,30.09,West,276,9.0,9.0,70,0.00,,,0.00,0,Wunderground v.1.15,2013-01-09 16:41:00,
2013-01-09 10:51:00,34.7,25.6,30.09,WNW,293,22.0,22.0,69,0.00,,,0.00,0,Wunderground v.1.15,2013-01-09 16:51:00,
2013-01-09 11:00:00,34.9,25.8,30.10,West,280,9.0,19.0,69,0.00,,,0.00,0,Wunderground v.1.15,2013-01-09 17:00:00,
2013-01-09 11:06:00,34.9,25.8,30.11,WNW,296,14.0,19.0,69,0.00,,,0.00,0,Wunderground v.1.15,2013-01-09 17:06:00,
2013-01-09 11:16:00,35.1,25.6,30.10,West,276,13.0,13.0,68,0.00,,,0.00,0,Wunderground v.1.15,2013-01-09 17:16:00,
2013-01-09 11:26:00,35.3,25.8,30.10,WNW,289,9.0,11.0,68,0.00,,,0.00,0,Wunderground v.1.15,2013-01-09 17:26:00,
2013-01-09 11:36:00,35.4,25.5,30.12,WNW,287,15.0,15.0,67,0.00,,,0.00,0,Wunderground v.1.15,2013-01-09 17:36:00,
2013-01-09 11:46:00,35.5,25.6,30.12,WNW,298,14.0,14.0,67,0.00,,,0.00,0,Wunderground v.1.15,2013-01-09 17:46:00,
2013-01-09 11:56:00,35.6,25.7,30.12,West,278,10.0,12.0,67,0.00,,,0.00,0,Wunderground v.1.15,2013-01-09 17:56:00,
2013-01-09 12:01:00,35.7,25.4,30.12,WNW,291,11.0,11.0,66,0.00,,,0.00,0,Wunderground v.1.15,2013-01-09 18:01:00,
2013-01-09 12:10:00,35.8,25.5,30.13,WNW,297,14.0,14.0,66,0.00,,,0.00,0,Wunderground v.1.15,2013-01-09 18:10:00,
2013-01-09 12:16:00,35.9,25.6,30.13,NW,304,11.0,14.0,66,0.00,,,0.00,0,Wunderground v.1.15,2013-01-09 18:16:00,
2013-01-09 12:26:00,36.1,25.8,30.13,WNW,296,10.0,11.0,66,0.00,,,0.00,0,Wunderground v.1.15,2013-01-09 18:26:00,
2013-01-09 12:36:00,36.1,25.5,30.13,WNW,282,10.0,13.0,65,0.00,,,0.00,0,Wunderground v.1.15,2013-01-09 18:36:00,
2013-01-09 12:46:00,36.1,25.8,30.14,WNW,292,13.0,13.0,66,0.00,,,0.00,0,Wunderground v.1.15,2013-01-09 18:46:00,
2013-01-09 12:51:00,36.1,25.8,30.15,WNW,290,14.0,14.0,66,0.00,,,0.00,0,Wunderground v.1.15,2013-01-09 18:51:00,
2013-01-09 13:01:00,36.3,25.7,30.16,West,280,8.0,22.0,65,0.00,,,0.00,0,Wunderground v.1.15,2013-01-09 19:01:00,
2013-01-09 13:06:00,36.4,25.4,30.17,WNW,293,13.0,22.0,64,0.00,,,0.00,0,Wunderground v.1.15,2013-01-09 19:06:00,
2013-01-09 13:16:00,36.6,25.2,30.17,WNW,290,12.0,15.0,63,0.00,,,0.00,0,Wunderground v.1.15,2013-01-09 19:16:00,
2013-01-09 13:21:00,36.6,25.2,30.18,WNW,297,15.0,15.0,63,0.00,,,0.00,0,Wunderground v.1.15,2013-01-09 19:21:00,
2013-01-09 13:31:00,36.7,25.7,30.19,WNW,301,17.0,17.0,64,0.00,,,0.00,0,Wunderground v.1.15,2013-01-09 19:31:00,
2013-01-09 13:40:00,36.7,25.3,30.20,WNW,294,13.0,13.0,63,0.00,,,0.00,0,Wunderground v.1.15,2013-01-09 19:40:00,
2013-01-09 13:46:00,36.8,25.4,30.21,WNW,294,16.0,16.0,63,0.00,,,0.00,0,Wunderground v.1.15,2013-01-09 19:46:00,
2013-01-09 13:56:00,36.8,25.0,30.21,WNW,284,11.0,14.0,62,0.00,,,0.00,0,Wunderground v.1.15,2013-01-09 19:56:00,
2013-01-09 14:06:00,36.9,25.1,30.22,WNW,300,17.0,17.0,62,0.00,,,0.00,0,Wunderground v.1.15,2013-01-09 20:06:00,
2013-01-09 14:16:00,36.7,24.9,30.22,WNW,288,12.0,16.0,62,0.00,,,0.00,0,Wunderground v.1.15,2013-01-09 20:16:00,
2013-01-09 14:26:00,36.6,24.8,30.23,WNW,292,13.0,13.0,62,0.00,,,0.00,0,Wunderground v.1.15,2013-01-09 20:26:00,
2013-01-09 14:36:00,36.6,25.2,30.24,WNW,294,12.0,12.0,63,0.00,,,0.00,0,Wunderground v.1.15,2013-01-09 20:36:00,
2013-01-09 14:46:00,36.6,25.6,30.25,WNW,284,19.0,19.0,64,0.00,,,0.00,0,Wunderground v.1.15,2013-01-09 20:46:00,
2013-01-09 14:56:00,36.8,25.4,30.26,WNW,296,9.0,9.0,63,0.00,,,0.00,0,Wunderground v.1.15,2013-01-09 20:56:00,
2013-01-09 15:06:00,36.5,25.5,30.27,WNW,291,16.0,17.0,64,0.00,,,0.00,0,Wunderground v.1.15,2013-01-09 21:06:00,
2013-01-09 15:16:00,36.2,25.6,30.29,West,281,12.0,12.0,65,0.00,,,0.00,0,Wunderground v.1.15,2013-01-09 21:16:00,
2013-01-09 15:26:00,36.0,25.7,30.29,West,263,7.0,11.0,66,0.00,,,0.00,0,Wunderground v.1.15,2013-01-09 21:26:00,
2013-01-09 15:36:00,35.6,25.7,30.30,West,280,7.0,7.0,67,0.00,,,0.00,0,Wunderground v.1.15,2013-01-09 21:36:00,
2013-01-09 15:46:00,35.0,25.5,30.30,West,275,9.0,13.0,68,0.00,,,0.00,0,Wunderground v.1.15,2013-01-09 21:46:00,
2013-01-09 15:56:00,34.5,25.4,30.29,WNW,284,7.0,7.0,69,0.00,,,0.00,0,Wunderground v.1.15,2013-01-09 21:56:00,
2013-01-09 16:06:00,33.9,25.1,30.29,West,278,7.0,13.0,70,0.00,,,0.00,0,Wunderground v.1.15,2013-01-09 22:06:00,
2013-01-09 16:16:00,33.5,25.1,30.31,West,275,6.0,7.0,71,0.00,,,0.00,0,Wunderground v.1.15,2013-01-09 22:16:00,
2013-01-09 16:21:00,33.3,24.9,30.30,WNW,289,8.0,8.0,71,0.00,,,0.00,0,Wunderground v.1.15,2013-01-09 22:21:00,
2013-01-09 16:31:00,32.9,24.9,30.31,WNW,288,10.0,10.0,72,0.00,,,0.00,0,Wunderground v.1.15,2013-01-09 22:31:00,
2013-01-09 16:41:00,32.3,24.6,30.31,WNW,296,9.0,9.0,73,0.00,,,0.00,0,Wunderground v.1.15,2013-01-09 22:41:00,
2013-01-09 16:51:00,31.4,24.1,30.31,WNW,291,5.0,5.0,74,0.00,,,0.00,0,Wunderground v.1.15,2013-01-09 22:51:00,
2013-01-09 17:01:00,30.6,23.6,30.33,WNW,293,4.0,16.0,75,0.00,,,0.00,0,Wunderground v.1.15,2013-01-09 23:01:00,
2013-01-09 17:06:00,30.2,23.5,30.32,WNW,288,4.0,16.0,76,0.00,,,0.00,0,Wunderground v.1.15,2013-01-09 23:06:00,
2013-01-09 17:15:00,29.8,23.2,30.33,WNW,297,4.0,6.0,76,0.00,,,0.00,0,Wunderground v.1.15,2013-01-09 23:15:00,
2013-01-09 17:21:00,29.5,22.9,30.33,WNW,297,2.0,2.0,76,0.00,,,0.00,0,Wunderground v.1.15,2013-01-09 23:21:00,
2013-01-09 17:31:00,28.8,22.2,30.32,NW,321,2.0,2.0,76,0.00,,,0.00,0,Wunderground v.1.15,2013-01-09 23:31:00,
2013-01-09 17:41:00,28.3,22.0,30.32,NW,311,4.0,4.0,77,0.00,,,0.00,0,Wunderground v.1.15,2013-01-09 23:41:00,
2013-01-09 17:51:00,28.2,21.9,30.33,NW,306,4.0,4.0,77,0.00,,,0.00,0,Wunderground v.1.15,2013-01-09 23:51:00,
2013-01-09 18:01:00,28.3,21.7,30.32,WNW,300,3.0,8.0,76,0.00,,,0.00,0,Wunderground v.1.15,2013-01-10 00:01:00,
2013-01-09 18:06:00,28.1,21.5,30.32,WNW,302,5.0,8.0,76,0.00,,,0.00,0,Wunderground v.1.15,2013-01-10 00:06:00,
2013-01-09 18:16:00,28.1,21.5,30.33,NW,323,3.0,7.0,76,0.00,,,0.00,0,Wunderground v.1.15,2013-01-10 00:16:00,
2013-01-09 18:26:00,28.1,21.5,30.33,WNW,301,5.0,5.0,76,0.00,,,0.00,0,Wunderground v.1.15,2013-01-10 00:26:00,
2013-01-09 18:36:00,27.9,21.0,30.32,NW,319,2.0,4.0,75,0.00,,,0.00,0,Wunderground v.1.15,2013-01-10 00:36:00,
2013-01-09 18:46:00,27.4,20.8,30.33,NW,310,5.0,5.0,76,0.00,,,0.00,0,Wunderground v.1.15,2013-01-10 00:46:00,
2013-01-09 18:56:00,27.0,20.4,30.33,NW,310,4.0,4.0,76,0.00,,,0.00,0,Wunderground v.1.15,2013-01-10 00:56:00,
2013-01-09 19:01:00,26.8,20.2,30.34,NW,310,2.0,5.0,76,0.00,,,0.00,0,Wunderground v.1.15,2013-01-10 01:01:00,
2013-01-09 19:10:00,26.2,20.0,30.33,NW,310,3.0,3.0,77,0.00,,,0.00,0,Wunderground v.1.15,2013-01-10 01:10:00,
2013-01-09 19:16:00,26.0,20.1,30.32,NW,310,2.0,3.0,78,0.00,,,0.00,0,Wunderground v.1.15,2013-01-10 01:16:00,
2013-01-09 19:26:00,25.5,19.9,30.33,NW,310,0.0,0.0,79,0.00,,,0.00,0,Wunderground v.1.15,2013-01-10 01:26:00,
2013-01-09 19:36:00,25.1,19.8,30.33,NW,310,0.0,0.0,80,0.00,,,0.00,0,Wunderground v.1.15,2013-01-10 01:36:00,
2013-01-09 19:46:00,24.8,19.8,30.34,NW,310,0.0,0.0,81,0.00,,,0.00,0,Wunderground v.1.15,2013-01-10 01:46:00,
2013-01-09 19:56:00,24.6,19.9,30.35,NW,310,0.0,0.0,82,0.00,,,0.00,0,Wunderground v.1.15,2013-01-10 01:56:00,
2013-01-09 20:06:00,24.3,19.9,30.35,NW,310,0.0,0.0,83,0.00,,,0.00,0,Wunderground v.1.15,2013-01-10 02:06:00,
2013-01-09 20:16:00,24.0,19.9,30.35,NW,310,1.0,1.0,84,0.00,,,0.00,0,Wunderground v.1.15,2013-01-10 02:16:00,
2013-01-09 20:26:00,23.7,19.6,30.36,NW,310,2.0,2.0,84,0.00,,,0.00,0,Wunderground v.1.15,2013-01-10 02:26:00,
2013-01-09 20:35:00,23.5,19.7,30.35,NW,310,2.0,2.0,85,0.00,,,0.00,0,Wunderground v.1.15,2013-01-10 02:35:00,
2013-01-09 20:41:00,23.4,19.3,30.36,NW,310,0.0,0.0,84,0.00,,,0.00,0,Wunderground v.1.15,2013-01-10 02:41:00,
2013-01-09 20:51:00,23.2,19.1,30.35,NW,310,2.0,2.0,84,0.00,,,0.00,0,Wunderground v.1.15,2013-01-10 02:51:00,
2013-01-09 21:00:00,22.9,19.1,30.36,NW,310,3.0,3.0,85,0.00,,,0.00,0,Wunderground v.1.15,2013-01-10 03:00:00,
2013-01-09 21:06:00,22.8,19.0,30.36,NW,310,0.0,3.0,85,0.00,,,0.00,0,Wunderground v.1.15,2013-01-10 03:06:00,
2013-01-09 21:16:00,22.6,19.0,30.35,NW,310,3.0,3.0,86,0.00,,,0.00,0,Wunderground v.1.15,2013-01-10 03:16:00,
2013-01-09 21:26:00,22.4,18.8,30.35,NW,310,3.0,3.0,86,0.00,,,0.00,0,Wunderground v.1.15,2013-01-10 03:26:00,
2013-01-09 21:36:00,22.2,18.9,30.35,SSE,160,3.0,3.0,87,0.00,,,0.00,0,Wunderground v.1.15,2013-01-10 03:36:00,
2013-01-09 21:46:00,22.1,18.6,30.35,SSE,160,2.0,3.0,86,0.00,,,0.00,0,Wunderground v.1.15,2013-01-10 03:46:00,
2013-01-09 21:56:00,22.0,18.7,30.35,SSE,160,1.0,1.0,87,0.00,,,0.00,0,Wunderground v.1.15,2013-01-10 03:56:00,
2013-01-09 22:01:00,21.9,18.6,30.35,SSE,160,2.0,2.0,87,0.00,,,0.00,0,Wunderground v.1.15,2013-01-10 04:01:00,
2013-01-09 22:11:00,21.7,18.4,30.33,SSE,160,3.0,3.0,87,0.00,,,0.00,0,Wunderground v.1.15,2013-01-10 04:11:00,
2013-01-09 22:21:00,21.5,18.2,30.34,SSE,160,0.0,0.0,87,0.00,,,0.00,0,Wunderground v.1.15,2013-01-10 04:21:00,
2013-01-09 22:31:00,21.2,17.9,30.33,SSE,160,0.0,0.0,87,0.00,,,0.00,0,Wunderground v.1.15,2013-01-10 04:31:00,
2013-01-09 22:36:00,21.0,17.5,30.33,SSE,160,0.0,0.0,86,0.00,,,0.00,0,Wunderground v.1.15,2013-01-10 04:36:00,
2013-01-09 22:46:00,20.8,17.5,30.34,SSE,160,0.0,0.0,87,0.00,,,0.00,0,Wunderground v.1.15,2013-01-10 04:46:00,
2013-01-09 22:56:00,20.5,17.0,30.34,SSE,160,1.0,2.0,86,0.00,,,0.00,0,Wunderground v.1.15,2013-01-10 04:56:00,
2013-01-09 23:01:00,20.4,16.9,30.34,SSE,160,2.0,3.0,86,0.00,,,0.00,0,Wunderground v.1.15,2013-01-10 05:01:00,
2013-01-09 23:11:00,20.2,16.7,30.34,SSE,160,0.0,0.0,86,0.00,,,0.00,0,Wunderground v.1.15,2013-01-10 05:11:00,
2013-01-09 23:21:00,19.8,16.0,30.35,SSE,160,0.0,0.0,85,0.00,,,0.00,0,Wunderground v.1.15,2013-01-10 05:21:00,
2013-01-09 23:31:00,19.6,16.1,30.36,SSE,160,0.0,0.0,86,0.00,,,0.00,0,Wunderground v.1.15,2013-01-10 05:31:00,
2013-01-09 23:36:00,19.8,16.6,30.35,SSE,160,0.0,0.0,87,0.00,,,0.00,0,Wunderground v.1.15,2013-01-10 05:36:00,
2013-01-09 23:46:00,20.0,16.8,30.36,SSE,160,0.0,0.0,87,0.00,,,0.00,0,Wunderground v.1.15,2013-01-10 05:46:00,
2013-01-09 23:56:00,20.0,16.8,30.37,SSE,160,0.0,0.0,87,0.00,,,0.00,0,Wunderground v.1.15,2013-01-10 05:56:00,